Bargerville, Illinois
Current Conditions -  °F | °C
As of 8:55 PM on Friday 19 Dec 2014 (Local Time) from KM30 Reporting Station
Overcast Overcast  
Wind Chill: 37°   Ceiling: 7000
Heat Index: 37°   Visibility: 10mi
Dew Point: 30°   Wind: 3mph
Humidity: 76%   Direction: 90°E
Pressure: 30.25"   Gusts: NA
Location:  37.2288°N, 88.7044°W
Report Text: KM30 200255Z AUTO 09003KT 10SM SCT050 BKN070 OVC080 03/M01 A3025 RMK AO2 T00251013
Loading
Personal Weather Stations






























Interactive Weather Map New forecast layout! Learn more

10-Day Weather Forecast

Advertisements
Track Severe Weather on mobile